Time;durP1;ratioP1;P1;durP2;ratioP2;P2;SDS_P1;SDS_P2;PMS_P1;PMS_P2;Temp;Humidity;BMP_temperature;BMP_pressure;BME280_temperature;BME280_humidity;BME280_pressure;Samples;Min_cycle;Max_cycle;Signal;HPM_P1;HPM_P2
2021/10/02 00:46:19;;;;;;;5.93;5.10;;;13.90;93.90;;;;;;5014991;28;20117;-57
2021/10/02 00:48:45;;;;;;;7.50;4.75;;;13.90;93.90;;;;;;5014891;28;20046;-58
2021/10/02 00:51:12;;;;;;;7.03;4.95;;;13.90;94.00;;;;;;5014820;28;20038;-61
2021/10/02 00:53:38;;;;;;;6.88;4.70;;;13.90;94.00;;;;;;5014946;28;20048;-58
2021/10/02 00:56:04;;;;;;;5.47;4.68;;;13.90;94.20;;;;;;5013594;28;20386;-56
2021/10/02 00:58:30;;;;;;;6.65;4.85;;;13.90;94.40;;;;;;5014727;28;20030;-57
2021/10/02 01:00:58;;;;;;;5.22;4.57;;;13.80;94.40;;;;;;5014595;28;20049;-56
2021/10/02 01:04:02;;;;;;;9.50;5.38;;;13.80;94.70;;;;;;5013699;28;20514;-59
2021/10/02 01:07:08;;;;;;;5.68;5.05;;;13.80;95.00;;;;;;5014741;28;20034;-58
2021/10/02 01:09:52;;;;;;;8.25;5.07;;;13.80;95.20;;;;;;5013581;28;20038;-57
2021/10/02 01:12:45;;;;;;;9.20;5.55;;;13.70;95.40;;;;;;5014455;28;20053;-57
2021/10/02 01:15:21;;;;;;;7.25;5.38;;;13.70;95.30;;;;;;5017538;28;20024;-56
2021/10/02 01:17:55;;;;;;;6.65;4.95;;;13.70;95.40;;;;;;5034624;28;20064;-57
2021/10/02 01:20:33;;;;;;;8.70;5.55;;;13.70;95.40;;;;;;5028559;28;20022;-58
2021/10/02 01:23:14;;;;;;;17.10;11.73;;;13.70;95.50;;;;;;5014351;28;20034;-56
2021/10/02 01:26:05;;;;;;;22.67;13.93;;;13.70;95.40;;;;;;5013997;28;20056;-58
2021/10/02 01:28:35;;;;;;;11.93;7.75;;;13.70;95.40;;;;;;5012828;28;20168;-58
2021/10/02 01:31:08;;;;;;;9.32;5.93;;;13.70;95.20;;;;;;5012759;28;20084;-60
2021/10/02 01:47:20;;;;;;;7.20;5.70;;;13.40;95.50;;;;;;5013743;28;20029;-62
2021/10/02 01:49:51;;;;;;;6.53;5.47;;;13.40;95.50;;;;;;5014010;28;20493;-59
2021/10/02 01:52:22;;;;;;;5.88;5.20;;;13.40;95.50;;;;;;5014301;28;20034;-60
2021/10/02 01:54:48;;;;;;;6.25;5.20;;;13.30;95.60;;;;;;5014052;28;20041;-58
2021/10/02 01:57:15;;;;;;;6.13;5.40;;;13.30;95.60;;;;;;5012749;28;20038;-60
2021/10/02 01:59:42;;;;;;;8.30;5.35;;;13.40;95.60;;;;;;5013664;28;20037;-60
2021/10/02 02:02:09;;;;;;;6.47;5.32;;;13.40;95.60;;;;;;5013240;28;20033;-60
2021/10/02 02:04:37;;;;;;;7.70;5.70;;;13.40;95.50;;;;;;5013747;28;20133;-61
2021/10/02 02:07:04;;;;;;;9.85;6.38;;;13.30;95.60;;;;;;5012132;28;20038;-61
2021/10/02 02:09:38;;;;;;;6.35;5.28;;;13.40;95.70;;;;;;5012719;28;20032;-61
2021/10/02 02:12:12;;;;;;;6.80;6.13;;;13.40;95.80;;;;;;5013933;28;20034;-60
2021/10/02 02:14:42;;;;;;;7.35;5.57;;;13.50;95.80;;;;;;5013692;28;20038;-59
2021/10/02 02:17:08;;;;;;;6.38;5.72;;;13.50;95.80;;;;;;5032449;28;20370;-59
2021/10/02 02:19:36;;;;;;;7.57;5.95;;;13.50;95.90;;;;;;5032835;28;20067;-59
2021/10/02 02:22:03;;;;;;;6.40;5.40;;;13.60;95.90;;;;;;5014175;28;20022;-59
2021/10/02 02:24:29;;;;;;;9.07;5.93;;;13.60;95.90;;;;;;5012047;28;20034;-59
2021/10/02 02:26:55;;;;;;;8.20;6.35;;;13.50;96.00;;;;;;5013286;28;20624;-60
2021/10/02 02:29:21;;;;;;;9.60;6.20;;;13.50;96.00;;;;;;5013280;28;20025;-60
2021/10/02 02:31:47;;;;;;;7.13;6.25;;;13.40;96.10;;;;;;5013207;28;20021;-60
2021/10/02 02:34:16;;;;;;;7.70;6.85;;;13.30;96.30;;;;;;5013341;28;20432;-59
2021/10/02 02:36:41;;;;;;;8.27;6.20;;;13.30;96.30;;;;;;5012917;28;20042;-61
2021/10/02 02:39:07;;;;;;;7.55;6.75;;;13.40;96.40;;;;;;5013146;28;20378;-60
2021/10/02 02:41:32;;;;;;;7.45;5.90;;;13.30;96.30;;;;;;5012468;28;20129;-59
2021/10/02 02:43:58;;;;;;;8.27;6.15;;;13.40;96.30;;;;;;5011688;28;20037;-60
2021/10/02 02:46:30;;;;;;;7.43;6.20;;;13.40;96.40;;;;;;5012945;28;20041;-60
2021/10/02 02:49:22;;;;;;;7.53;6.80;;;13.40;96.40;;;;;;5011678;28;20048;-60
2021/10/02 02:52:11;;;;;;;8.55;7.45;;;13.50;96.40;;;;;;5013197;28;20113;-60
2021/10/02 02:54:46;;;;;;;8.07;6.65;;;13.40;96.40;;;;;;4994922;28;20068;-60
2021/10/02 02:57:16;;;;;;;;;;;13.40;96.50;;;;;;5013272;28;20041;-60
2021/10/02 03:00:04;;;;;;;7.13;6.03;;;13.40;96.60;;;;;;5012498;28;19905;-60
2021/10/02 03:02:33;;;;;;;7.63;6.68;;;13.40;96.50;;;;;;5012386;28;20026;-60
2021/10/02 03:05:02;;;;;;;8.93;6.38;;;13.50;96.70;;;;;;5012877;28;20073;-61
2021/10/02 03:07:29;;;;;;;7.15;6.45;;;13.50;96.70;;;;;;5012742;28;20034;-59
2021/10/02 03:09:56;;;;;;;8.52;6.53;;;13.50;96.70;;;;;;5011579;28;20042;-60
2021/10/02 03:12:30;;;;;;;8.43;6.40;;;13.50;96.60;;;;;;5012511;28;20040;-60
2021/10/02 03:14:58;;;;;;;7.40;6.57;;;13.60;96.80;;;;;;5017762;28;20504;-60
2021/10/02 03:17:25;;;;;;;7.07;6.38;;;13.60;96.70;;;;;;5036575;28;20037;-60
2021/10/02 03:19:52;;;;;;;12.85;6.03;;;13.60;96.70;;;;;;5037005;28;20041;-60
2021/10/02 03:22:18;;;;;;;7.43;5.90;;;13.70;96.60;;;;;;5035201;28;20037;-60
2021/10/02 03:24:46;;;;;;;7.30;6.03;;;13.70;96.50;;;;;;5036334;28;20026;-60
2021/10/02 03:27:12;;;;;;;6.20;5.18;;;13.70;96.50;;;;;;5036543;28;20032;-60
2021/10/02 03:29:38;;;;;;;7.70;5.50;;;13.70;96.70;;;;;;5036501;28;20056;-60
2021/10/02 03:32:06;;;;;;;6.25;5.28;;;13.70;96.70;;;;;;5036269;28;20435;-60
2021/10/02 03:34:33;;;;;;;6.75;6.13;;;13.70;96.70;;;;;;5035055;28;20065;-58
2021/10/02 03:37:00;;;;;;;6.78;6.05;;;13.70;96.70;;;;;;5018482;28;20042;-60
2021/10/02 03:39:26;;;;;;;7.32;6.50;;;13.70;96.70;;;;;;5016782;28;20440;-60
2021/10/02 03:42:12;;;;;;;7.95;6.18;;;13.70;96.80;;;;;;5016165;28;20028;-60
2021/10/02 03:44:44;;;;;;;8.90;6.20;;;13.70;96.80;;;;;;5016252;28;20038;-60
2021/10/02 03:47:10;;;;;;;12.80;6.38;;;13.70;96.90;;;;;;4998580;28;20117;-59
2021/10/02 03:49:36;;;;;;;6.60;5.90;;;13.70;96.90;;;;;;5016430;28;20389;-60
2021/10/02 03:52:03;;;;;;;6.43;5.53;;;13.70;97.00;;;;;;5016031;28;20116;-60
2021/10/02 03:54:29;;;;;;;8.10;6.43;;;13.70;96.80;;;;;;5015741;28;20136;-60
2021/10/02 03:56:55;;;;;;;7.53;5.90;;;13.70;96.90;;;;;;5016059;28;20152;-60
2021/10/02 03:59:21;;;;;;;6.32;5.22;;;13.60;97.00;;;;;;5015799;28;20029;-60
2021/10/02 04:01:46;;;;;;;8.55;5.95;;;13.70;97.10;;;;;;5016401;28;20197;-60
2021/10/02 04:04:12;;;;;;;5.82;5.30;;;13.70;97.10;;;;;;5016386;28;20145;-62
2021/10/02 04:06:37;;;;;;;6.47;4.93;;;13.70;97.00;;;;;;5014725;28;20045;-59
2021/10/02 04:09:03;;;;;;;7.47;5.72;;;13.70;97.00;;;;;;5016039;28;20034;-59
2021/10/02 04:11:30;;;;;;;7.00;5.65;;;13.70;97.00;;;;;;5014214;28;20030;-59
2021/10/02 04:13:56;;;;;;;11.55;5.63;;;13.70;97.00;;;;;;5016054;28;20474;-59
2021/10/02 04:16:22;;;;;;;10.45;5.22;;;13.70;97.10;;;;;;5027403;28;20091;-58
2021/10/02 04:18:47;;;;;;;7.68;6.10;;;13.70;97.10;;;;;;5035376;28;20040;-59
2021/10/02 04:21:13;;;;;;;7.47;5.72;;;13.70;97.10;;;;;;5023698;28;20034;-61
2021/10/02 04:23:38;;;;;;;6.20;5.38;;;13.70;97.30;;;;;;5014727;28;20042;-60
2021/10/02 04:26:04;;;;;;;8.63;5.75;;;13.70;97.20;;;;;;5014731;28;20038;-60
2021/10/02 04:28:30;;;;;;;6.13;5.50;;;13.70;97.30;;;;;;5015215;28;20531;-60
2021/10/02 04:30:55;;;;;;;8.27;5.88;;;13.70;97.30;;;;;;5015188;28;20440;-61
2021/10/02 04:33:21;;;;;;;8.27;5.80;;;13.70;97.40;;;;;;5015133;28;20423;-60
2021/10/02 04:35:47;;;;;;;20.70;6.78;;;13.70;97.50;;;;;;5015186;28;20033;-59
2021/10/02 04:38:13;;;;;;;31.95;22.50;;;13.70;97.40;;;;;;5015174;28;20393;-59
2021/10/02 04:40:39;;;;;;;16.05;10.07;;;13.70;97.40;;;;;;5013802;28;20128;-60
2021/10/02 04:43:05;;;;;;;7.13;6.35;;;13.70;97.40;;;;;;5014963;28;20472;-59
2021/10/02 04:45:30;;;;;;;8.60;5.82;;;13.80;97.40;;;;;;5015303;28;20057;-59
2021/10/02 04:47:56;;;;;;;6.50;5.70;;;13.70;97.40;;;;;;5015292;28;20630;-59
2021/10/02 04:50:21;;;;;;;6.43;4.95;;;13.70;97.50;;;;;;5014996;28;20110;-59
2021/10/02 04:52:50;;;;;;;31.35;26.40;;;13.70;97.40;;;;;;5014119;28;20394;-60
2021/10/02 04:55:15;;;;;;;10.05;6.78;;;13.70;97.50;;;;;;5015424;28;20061;-60
2021/10/02 04:57:41;;;;;;;6.82;5.55;;;13.70;97.60;;;;;;5013242;28;20030;-62
2021/10/02 05:00:07;;;;;;;9.57;7.65;;;13.80;97.60;;;;;;5014839;28;20044;-60
2021/10/02 05:02:33;;;;;;;6.88;5.45;;;13.80;97.60;;;;;;5014524;28;20053;-61
2021/10/02 05:04:58;;;;;;;8.80;6.35;;;13.80;97.50;;;;;;5015168;28;20440;-59
2021/10/02 05:07:24;;;;;;;6.25;5.35;;;13.80;97.60;;;;;;5014644;28;20500;-60
2021/10/02 05:09:49;;;;;;;8.98;5.72;;;13.80;97.60;;;;;;5014785;28;20497;-60
2021/10/02 05:12:15;;;;;;;8.77;5.93;;;13.90;97.60;;;;;;5014229;28;20045;-60
2021/10/02 05:14:40;;;;;;;6.38;5.63;;;13.80;97.60;;;;;;5014189;28;20021;-61
2021/10/02 05:17:10;;;;;;;6.53;5.75;;;13.90;97.70;;;;;;5033767;28;20404;-60
2021/10/02 05:19:36;;;;;;;6.82;5.80;;;13.90;97.60;;;;;;5034411;28;20061;-61
2021/10/02 05:22:02;;;;;;;5.97;5.38;;;13.90;97.60;;;;;;5015940;28;20065;-60
2021/10/02 05:24:27;;;;;;;6.70;6.00;;;13.90;97.50;;;;;;5013029;28;20435;-61
2021/10/02 05:26:53;;;;;;;6.60;5.57;;;13.90;97.60;;;;;;5014356;28;20040;-60
2021/10/02 05:29:18;;;;;;;8.32;5.20;;;13.90;97.60;;;;;;5014420;28;20038;-60
2021/10/02 05:31:44;;;;;;;6.55;5.60;;;13.90;97.60;;;;;;5014228;28;20048;-60
2021/10/02 05:34:12;;;;;;;6.95;5.80;;;14.00;97.50;;;;;;5014406;28;20069;-60
2021/10/02 05:36:37;;;;;;;7.65;5.65;;;14.00;97.40;;;;;;5026952;28;20041;-61
2021/10/02 05:39:03;;;;;;;7.22;5.57;;;14.00;97.50;;;;;;5032731;28;20056;-61
2021/10/02 05:41:29;;;;;;;7.30;5.18;;;14.00;97.70;;;;;;5033857;28;20061;-60
2021/10/02 05:43:54;;;;;;;7.45;5.70;;;14.00;97.80;;;;;;5033799;28;20037;-61
2021/10/02 05:46:20;;;;;;;5.55;5.00;;;14.00;97.90;;;;;;5033633;28;20036;-60
2021/10/02 05:48:45;;;;;;;6.45;5.45;;;14.00;97.80;;;;;;5032744;28;20492;-61
2021/10/02 05:51:11;;;;;;;7.20;5.93;;;14.10;97.80;;;;;;5033654;28;20029;-61
2021/10/02 05:53:37;;;;;;;8.02;6.10;;;14.10;97.70;;;;;;5034106;28;20072;-60
2021/10/02 05:56:03;;;;;;;7.22;5.70;;;14.10;97.70;;;;;;5033250;28;20034;-60
2021/10/02 05:58:28;;;;;;;7.15;5.75;;;14.10;97.60;;;;;;5031349;28;20451;-61
2021/10/02 06:00:54;;;;;;;9.55;6.38;;;14.10;97.70;;;;;;5012189;28;20132;-61
2021/10/02 06:03:19;;;;;;;7.22;6.18;;;14.10;97.70;;;;;;5013515;28;20041;-61
2021/10/02 06:05:45;;;;;;;8.55;6.38;;;14.20;97.70;;;;;;5013732;28;20120;-61
2021/10/02 06:08:13;;;;;;;10.35;6.20;;;14.20;97.50;;;;;;5012482;28;20036;-60
2021/10/02 06:10:39;;;;;;;7.43;6.22;;;14.10;97.60;;;;;;5014399;28;20137;-60
2021/10/02 06:13:04;;;;;;;12.13;6.43;;;14.20;97.50;;;;;;5013421;28;20076;-58
2021/10/02 06:15:30;;;;;;;7.00;6.22;;;14.20;97.50;;;;;;5019448;28;20041;-60
2021/10/02 06:17:55;;;;;;;11.27;6.43;;;14.20;97.40;;;;;;5033148;28;20025;-59
2021/10/02 06:20:22;;;;;;;8.90;7.72;;;14.20;97.40;;;;;;5029026;28;20496;-59
2021/10/02 06:22:48;;;;;;;10.52;7.13;;;14.10;97.40;;;;;;5013376;28;20058;-58
2021/10/02 06:25:14;;;;;;;6.80;6.10;;;14.10;97.50;;;;;;5013292;28;20061;-61
2021/10/02 06:27:40;;;;;;;7.28;6.25;;;14.20;97.50;;;;;;5012490;28;20034;-59
2021/10/02 06:30:07;;;;;;;8.98;7.43;;;14.20;97.50;;;;;;5013536;28;20153;-59
2021/10/02 06:32:33;;;;;;;9.10;7.57;;;14.20;97.40;;;;;;5012765;28;20038;-59
2021/10/02 06:34:58;;;;;;;8.48;7.18;;;14.20;97.40;;;;;;5013588;28;20052;-59
2021/10/02 06:37:24;;;;;;;9.15;6.68;;;14.20;97.30;;;;;;5033381;28;20049;-61
2021/10/02 06:39:50;;;;;;;11.63;7.13;;;14.20;97.30;;;;;;5033121;28;20124;-60
2021/10/02 06:42:18;;;;;;;8.23;7.35;;;14.30;97.30;;;;;;5032588;28;20057;-61
2021/10/02 06:44:43;;;;;;;8.50;7.25;;;14.30;97.20;;;;;;5033012;28;20030;-60
2021/10/02 06:47:09;;;;;;;13.23;9.55;;;14.30;97.20;;;;;;5032785;28;20036;-59
2021/10/02 06:49:35;;;;;;;9.95;7.97;;;14.40;97.20;;;;;;5031387;28;20396;-60
2021/10/02 06:52:00;;;;;;;11.52;10.18;;;14.30;97.30;;;;;;5032385;28;20048;-59
2021/10/02 06:54:26;;;;;;;14.45;12.93;;;14.30;97.30;;;;;;5032722;28;20052;-59
2021/10/02 06:56:51;;;;;;;17.30;15.57;;;14.40;97.20;;;;;;5032907;28;20044;-60
2021/10/02 06:59:17;;;;;;;21.95;18.55;;;14.50;97.10;;;;;;5032852;28;20041;-61
2021/10/02 07:01:43;;;;;;;20.20;18.30;;;14.50;97.10;;;;;;5032494;28;20034;-59
2021/10/02 07:04:09;;;;;;;16.60;14.90;;;14.60;96.90;;;;;;5032164;28;20500;-61
2021/10/02 07:06:35;;;;;;;10.50;9.50;;;14.60;96.80;;;;;;5021558;28;20068;-59
2021/10/02 07:09:00;;;;;;;9.88;7.88;;;14.60;96.60;;;;;;5011629;28;20547;-62
2021/10/02 07:11:26;;;;;;;9.15;7.32;;;14.70;96.50;;;;;;5012940;28;20041;-61
2021/10/02 07:13:52;;;;;;;10.05;6.40;;;14.70;96.30;;;;;;5013126;28;20656;-63
2021/10/02 07:16:17;;;;;;;9.05;6.75;;;14.70;96.40;;;;;;5011106;28;20041;-61
2021/10/02 07:18:43;;;;;;;6.78;5.72;;;14.80;96.40;;;;;;5012635;28;20080;-62
2021/10/02 07:21:09;;;;;;;6.03;5.30;;;14.80;96.00;;;;;;5023333;28;20576;-62
2021/10/02 07:23:35;;;;;;;8.23;5.95;;;14.90;96.10;;;;;;5031087;28;20125;-63
2021/10/02 07:26:01;;;;;;;9.10;5.90;;;15.00;95.80;;;;;;5032515;28;20030;-60
2021/10/02 07:28:27;;;;;;;9.05;5.50;;;15.20;96.40;;;;;;5032712;28;20094;-61
2021/10/02 07:30:52;;;;;;;9.80;5.43;;;15.40;96.60;;;;;;5032349;28;20065;-59
2021/10/02 07:33:18;;;;;;;7.22;5.30;;;15.60;95.90;;;;;;5032342;28;20044;-60
2021/10/02 07:35:44;;;;;;;8.77;5.38;;;15.70;95.50;;;;;;5025171;28;20091;-59
2021/10/02 07:38:09;;;;;;;10.68;4.65;;;15.80;95.50;;;;;;5011224;28;20053;-59
2021/10/02 07:40:37;;;;;;;7.65;4.50;;;15.90;95.30;;;;;;5012831;28;20120;-61
2021/10/02 07:43:04;;;;;;;8.43;4.85;;;15.90;95.00;;;;;;5011233;28;20421;-61
2021/10/02 07:45:31;;;;;;;6.95;4.63;;;16.00;95.00;;;;;;5027405;28;20125;-60
2021/10/02 07:47:58;;;;;;;7.95;4.43;;;16.00;95.10;;;;;;5032290;28;20026;-58
2021/10/02 07:50:24;;;;;;;6.75;4.50;;;16.00;95.00;;;;;;5030936;28;20030;-61
2021/10/02 07:52:54;;;;;;;6.18;4.32;;;16.10;94.90;;;;;;5031049;28;20099;-58
2021/10/02 07:55:20;;;;;;;5.30;3.97;;;16.20;94.50;;;;;;5031439;28;20069;-61
2021/10/02 07:57:47;;;;;;;7.10;4.05;;;16.30;94.20;;;;;;5032093;28;20030;-61
2021/10/02 08:00:22;;;;;;;5.45;3.65;;;16.40;94.20;;;;;;5034106;28;20499;-62
2021/10/02 08:02:55;;;;;;;6.53;4.10;;;16.40;94.10;;;;;;5035196;28;20472;-65
2021/10/02 08:05:22;;;;;;;6.72;4.05;;;16.60;93.40;;;;;;5036199;28;20112;-58
2021/10/02 08:07:49;;;;;;;5.75;3.90;;;16.70;93.60;;;;;;5035369;28;20037;-60
2021/10/02 08:10:20;;;;;;;6.82;3.55;;;16.70;93.40;;;;;;5035839;28;20030;-61
2021/10/02 08:12:45;;;;;;;6.72;3.70;;;16.80;93.00;;;;;;5050361;28;20055;-61
2021/10/02 08:15:12;;;;;;;4.85;3.50;;;16.90;92.90;;;;;;5034215;28;20033;-59
2021/10/02 08:17:40;;;;;;;4.88;3.63;;;16.90;92.60;;;;;;5035886;28;20037;-59
2021/10/02 08:20:10;;;;;;;4.40;3.30;;;17.00;92.20;;;;;;5033300;28;20512;-56
2021/10/02 08:22:39;;;;;;;5.50;3.60;;;17.00;92.30;;;;;;5015680;28;20113;-60
2021/10/02 08:25:06;;;;;;;5.55;3.67;;;17.10;92.40;;;;;;5015489;28;20038;-63
2021/10/02 08:27:33;;;;;;;7.47;3.55;;;17.10;92.10;;;;;;5015646;28;20061;-63
2021/10/02 08:29:59;;;;;;;7.88;3.92;;;16.90;92.20;;;;;;5014090;28;20022;-62
2021/10/02 08:32:26;;;;;;;5.88;3.90;;;16.80;92.30;;;;;;5015174;28;20455;-63
2021/10/02 08:34:51;;;;;;;5.40;3.75;;;16.70;92.40;;;;;;5013759;28;20030;-62
2021/10/02 08:37:17;;;;;;;8.10;3.80;;;16.60;92.80;;;;;;5024366;28;20029;-63
2021/10/02 08:39:42;;;;;;;4.50;3.97;;;16.70;92.60;;;;;;5034596;28;20029;-62
2021/10/02 08:42:08;;;;;;;5.80;4.85;;;16.80;91.70;;;;;;5034067;28;20037;-64
2021/10/02 08:44:34;;;;;;;5.03;3.80;;;16.80;91.90;;;;;;5038958;28;20030;-63
2021/10/02 08:47:02;;;;;;;6.63;3.70;;;16.70;92.00;;;;;;5015876;28;20505;-62
2021/10/02 08:49:31;;;;;;;6.45;3.80;;;16.70;92.20;;;;;;5015778;28;20038;-61
2021/10/02 08:52:01;;;;;;;4.85;3.75;;;16.70;92.20;;;;;;5015157;28;20030;-62
2021/10/02 08:54:28;;;;;;;5.07;3.80;;;16.70;92.30;;;;;;5034765;28;20102;-61
2021/10/02 08:56:54;;;;;;;8.65;4.40;;;16.90;92.20;;;;;;5035082;28;20045;-63
2021/10/02 08:59:21;;;;;;;5.45;3.50;;;17.00;92.40;;;;;;5035009;28;20084;-63
2021/10/02 09:01:47;;;;;;;6.13;4.00;;;17.10;92.10;;;;;;5049692;28;20495;-62
2021/10/02 09:04:13;;;;;;;6.88;3.90;;;17.00;92.20;;;;;;5033361;28;20037;-63
2021/10/02 09:06:38;;;;;;;5.18;3.65;;;17.00;92.00;;;;;;5034361;28;20033;-63
2021/10/02 09:09:06;;;;;;;5.88;4.10;;;17.00;91.70;;;;;;5030963;28;20026;-62
2021/10/02 09:11:33;;;;;;;7.97;4.00;;;17.00;92.00;;;;;;5013491;28;20030;-63
2021/10/02 09:13:58;;;;;;;6.85;3.92;;;17.00;92.10;;;;;;5014851;28;20034;-62
2021/10/02 09:16:27;;;;;;;7.22;3.78;;;17.40;92.60;;;;;;5014868;28;20033;-59
2021/10/02 09:18:52;;;;;;;6.20;4.28;;;17.60;92.00;;;;;;5015229;28;20037;-61
2021/10/02 09:21:18;;;;;;;8.07;4.10;;;17.80;91.70;;;;;;5027198;28;20120;-60
2021/10/02 09:23:46;;;;;;;8.88;4.40;;;18.00;91.40;;;;;;5033188;28;20125;-60
2021/10/02 09:26:12;;;;;;;7.65;4.25;;;18.10;91.40;;;;;;5033257;28;20041;-63
2021/10/02 09:28:41;;;;;;;6.82;4.03;;;18.20;91.20;;;;;;5033380;28;20117;-63
2021/10/02 09:31:07;;;;;;;4.72;3.30;;;18.20;91.00;;;;;;5032181;28;20049;-62
2021/10/02 09:33:33;;;;;;;5.88;3.70;;;18.00;90.30;;;;;;5025379;28;20497;-61
2021/10/02 09:35:59;;;;;;;4.97;3.50;;;17.80;90.30;;;;;;5024133;28;20029;-63
2021/10/02 09:38:26;;;;;;;4.75;3.40;;;17.70;90.90;;;;;;5024185;28;20030;-62
2021/10/02 09:40:55;;;;;;;6.03;3.70;;;17.70;90.90;;;;;;5024233;28;20021;-63
2021/10/02 09:43:22;;;;;;;4.65;3.50;;;17.80;90.80;;;;;;5021741;28;20079;-62
2021/10/02 09:45:49;;;;;;;5.13;3.47;;;17.80;90.90;;;;;;5020811;28;20068;-63
2021/10/02 09:48:25;;;;;;;4.03;3.30;;;18.00;90.70;;;;;;5023426;28;20087;-63
2021/10/02 09:50:50;;;;;;;4.65;3.55;;;18.00;90.30;;;;;;5025560;28;20021;-62
2021/10/02 09:53:18;;;;;;;4.43;3.83;;;18.00;90.50;;;;;;5021421;28;20060;-62
2021/10/02 09:55:46;;;;;;;4.70;3.92;;;18.00;91.30;;;;;;5021059;28;20045;-63
2021/10/02 09:58:31;;;;;;;4.65;3.60;;;18.10;90.60;;;;;;5022707;28;20037;-62
2021/10/02 10:00:58;;;;;;;5.68;4.15;;;18.30;90.40;;;;;;5023084;28;20018;-62
2021/10/02 10:03:24;;;;;;;5.00;3.60;;;18.40;90.30;;;;;;5023638;28;20077;-62
2021/10/02 10:05:52;;;;;;;7.40;3.85;;;18.40;90.20;;;;;;5021740;28;20026;-62
2021/10/02 10:08:26;;;;;;;6.55;3.75;;;18.50;90.30;;;;;;5042918;28;20022;-61
2021/10/02 10:11:05;;;;;;;6.65;3.83;;;18.60;89.80;;;;;;5023029;28;20485;-63
2021/10/02 10:13:31;;;;;;;4.82;3.67;;;18.60;90.00;;;;;;5023131;28;20033;-64
2021/10/02 10:15:57;;;;;;;7.68;3.72;;;18.70;89.20;;;;;;5023393;28;20040;-64
2021/10/02 10:18:29;;;;;;;5.82;3.88;;;18.70;89.40;;;;;;5022029;28;20116;-63
2021/10/02 10:20:58;;;;;;;5.00;3.60;;;18.70;89.00;;;;;;5022842;28;20104;-63
2021/10/02 10:23:33;;;;;;;4.90;3.55;;;18.60;89.50;;;;;;5020161;28;20041;-64
2021/10/02 10:26:11;;;;;;;6.07;3.42;;;18.60;89.80;;;;;;5022294;28;20022;-65
2021/10/02 10:28:40;;;;;;;5.90;4.20;;;18.70;90.10;;;;;;5022477;28;20025;-63
2021/10/02 10:31:14;;;;;;;4.32;3.65;;;18.90;89.00;;;;;;5024416;28;20034;-64
2021/10/02 10:33:45;;;;;;;5.95;3.45;;;19.00;89.80;;;;;;5022369;28;20037;-62
2021/10/02 10:36:12;;;;;;;4.05;3.47;;;18.90;88.50;;;;;;5023190;28;20041;-63
2021/10/02 10:38:39;;;;;;;7.40;3.67;;;19.00;88.90;;;;;;5023768;28;20029;-63
2021/10/02 10:41:08;;;;;;;6.18;3.35;;;19.20;88.40;;;;;;5020476;28;20052;-62
2021/10/02 10:43:35;;;;;;;6.07;3.58;;;19.10;88.80;;;;;;5022600;28;20029;-63
2021/10/02 10:46:03;;;;;;;5.18;3.47;;;19.00;88.80;;;;;;5023510;28;20033;-63
2021/10/02 10:48:29;;;;;;;5.63;3.78;;;18.90;88.40;;;;;;5022633;28;20036;-62
2021/10/02 10:51:04;;;;;;;6.22;4.13;;;18.90;88.00;;;;;;5028118;28;20033;-62
2021/10/02 10:53:43;;;;;;;4.45;3.58;;;18.80;89.00;;;;;;5026139;28;20565;-64
2021/10/02 10:56:11;;;;;;;7.68;3.75;;;18.80;89.90;;;;;;5023705;28;20048;-63
2021/10/02 10:58:38;;;;;;;4.25;3.67;;;19.00;89.40;;;;;;5021129;28;20049;-62
2021/10/02 11:01:07;;;;;;;4.22;3.25;;;19.00;89.20;;;;;;5024031;28;20400;-62
2021/10/02 11:03:42;;;;;;;4.68;3.13;;;19.10;89.20;;;;;;5021075;28;20163;-64
2021/10/02 11:06:19;;;;;;;7.68;3.10;;;19.10;88.10;;;;;;5023412;28;20092;-65
2021/10/02 11:09:04;;;;;;;4.65;3.78;;;19.10;88.50;;;;;;5021038;28;20124;-66
2021/10/02 11:11:49;;;;;;;6.38;3.30;;;19.20;87.40;;;;;;5021286;28;20021;-63
2021/10/02 11:14:19;;;;;;;5.25;3.15;;;19.10;87.60;;;;;;5020867;28;20053;-63
2021/10/02 11:16:47;;;;;;;5.97;3.30;;;19.10;87.90;;;;;;5023424;28;20040;-64
2021/10/02 11:19:34;;;;;;;4.32;2.90;;;19.10;88.40;;;;;;5004775;28;20175;-64
2021/10/02 11:22:47;;;;;;;3.80;2.95;;;19.40;87.40;;;;;;5021725;28;20034;-66
2021/10/02 11:25:22;;;;;;;3.50;2.97;;;19.60;87.60;;;;;;5021585;28;20034;-63
2021/10/02 11:27:47;;;;;;;;;;;19.60;87.50;;;;;;5024402;28;20046;-64
2021/10/02 11:30:15;;;;;;;3.38;2.80;;;19.50;86.90;;;;;;5023064;28;19945;-63
2021/10/02 11:32:41;;;;;;;3.58;3.00;;;19.50;86.40;;;;;;5022534;28;20068;-65
2021/10/02 11:35:14;;;;;;;3.33;2.72;;;19.70;86.80;;;;;;5021826;28;20045;-65
2021/10/02 11:37:45;;;;;;;5.00;2.60;;;19.80;86.30;;;;;;5025461;28;20025;-64
2021/10/02 11:40:36;;;;;;;2.95;2.40;;;20.00;85.70;;;;;;5008477;28;20051;-64
2021/10/02 11:43:14;;;;;;;3.47;2.70;;;20.10;84.10;;;;;;5025359;28;20029;-64
2021/10/02 11:45:41;;;;;;;4.03;2.63;;;20.10;84.30;;;;;;5025566;28;20073;-64
2021/10/02 11:48:12;;;;;;;3.30;2.40;;;20.00;82.70;;;;;;5024432;28;20026;-64
2021/10/02 11:50:38;;;;;;;2.65;2.40;;;19.90;81.00;;;;;;5026238;28;20020;-64
2021/10/02 11:53:04;;;;;;;4.28;2.60;;;19.80;80.10;;;;;;5024767;28;20092;-64
2021/10/02 11:55:33;;;;;;;3.58;2.80;;;19.90;80.40;;;;;;5028778;28;20029;-64
2021/10/02 11:58:08;;;;;;;4.10;2.60;;;19.90;79.40;;;;;;5030232;28;20508;-62
2021/10/02 12:00:39;;;;;;;3.65;2.60;;;19.80;79.80;;;;;;5026509;28;20068;-63
2021/10/02 12:03:06;;;;;;;5.22;3.10;;;19.80;79.80;;;;;;5045247;28;20038;-63
2021/10/02 12:05:32;;;;;;;4.18;3.03;;;19.90;81.00;;;;;;5027305;28;20106;-64
2021/10/02 12:07:58;;;;;;;5.18;2.85;;;20.10;81.50;;;;;;5026358;28;20036;-65
2021/10/02 12:10:26;;;;;;;5.80;2.60;;;20.20;80.70;;;;;;5026793;28;20384;-64
2021/10/02 12:12:52;;;;;;;3.90;3.30;;;20.10;81.40;;;;;;5026510;28;20116;-65
2021/10/02 12:15:35;;;;;;;3.13;2.60;;;20.20;81.40;;;;;;5035904;28;20030;-65
2021/10/02 12:18:01;;;;;;;5.88;2.90;;;20.30;81.70;;;;;;5034532;28;20033;-63
2021/10/02 12:20:36;;;;;;;3.63;2.53;;;20.50;81.50;;;;;;5030146;28;20037;-62
2021/10/02 12:23:07;;;;;;;4.68;2.80;;;20.50;81.30;;;;;;5015589;28;20065;-62
2021/10/02 12:25:33;;;;;;;3.65;2.83;;;20.60;82.10;;;;;;5014365;28;20033;-62
2021/10/02 12:27:58;;;;;;;5.78;2.85;;;20.90;82.50;;;;;;5018573;28;20030;-62
2021/10/02 12:30:24;;;;;;;4.28;2.70;;;21.20;79.30;;;;;;5034608;28;20030;-63
2021/10/02 12:33:01;;;;;;;4.68;3.25;;;21.30;78.20;;;;;;5034762;28;20481;-63
2021/10/02 12:35:27;;;;;;;5.93;4.65;;;21.40;78.20;;;;;;5030555;28;20385;-62
2021/10/02 12:37:56;;;;;;;4.55;3.08;;;21.60;78.60;;;;;;5014258;28;20041;-61
2021/10/02 12:40:23;;;;;;;4.07;3.25;;;21.70;76.80;;;;;;5015499;28;20113;-62
2021/10/02 12:42:53;;;;;;;3.35;3.00;;;21.60;76.20;;;;;;5014001;28;20036;-61
2021/10/02 12:45:24;;;;;;;6.18;3.35;;;21.60;75.00;;;;;;5014098;28;20018;-62
2021/10/02 12:47:57;;;;;;;15.73;14.07;;;21.70;74.40;;;;;;5020726;28;20041;-60
2021/10/02 12:50:31;;;;;;;5.60;3.40;;;21.70;71.90;;;;;;5026763;28;20029;-60
2021/10/02 12:52:58;;;;;;;4.47;2.90;;;21.80;71.20;;;;;;5035025;28;20124;-61
2021/10/02 12:55:27;;;;;;;4.00;2.88;;;21.80;70.40;;;;;;5031820;28;20030;-64
2021/10/02 12:57:53;;;;;;;5.03;2.80;;;21.90;69.30;;;;;;5030336;28;20034;-63
2021/10/02 13:00:30;;;;;;;4.72;3.65;;;21.90;68.50;;;;;;5025357;28;20437;-61
2021/10/02 13:03:01;;;;;;;7.40;3.78;;;21.90;67.70;;;;;;5015328;28;20030;-63
2021/10/02 13:05:30;;;;;;;5.95;3.10;;;21.90;68.20;;;;;;5014066;28;20042;-62
2021/10/02 13:07:57;;;;;;;4.60;3.58;;;22.00;67.20;;;;;;5014757;28;20432;-67
2021/10/02 13:10:35;;;;;;;4.57;2.85;;;22.00;66.30;;;;;;5015117;28;20026;-65
2021/10/02 13:13:14;;;;;;;5.53;2.83;;;22.20;65.10;;;;;;5014190;28;20026;-63
2021/10/02 13:15:43;;;;;;;4.30;2.67;;;22.10;65.80;;;;;;5014805;28;20049;-67
2021/10/02 13:18:11;;;;;;;5.25;3.08;;;22.20;66.70;;;;;;5014993;28;20068;-62
2021/10/02 13:20:40;;;;;;;5.35;3.03;;;22.30;67.00;;;;;;5022473;28;20461;-62
2021/10/02 13:23:44;;;;;;;3.92;2.83;;;22.40;66.90;;;;;;5013203;28;20064;-63
2021/10/02 13:26:21;;;;;;;3.22;2.75;;;22.50;66.40;;;;;;5012230;28;20038;-61
2021/10/02 13:28:49;;;;;;;3.38;2.70;;;22.50;66.00;;;;;;5011950;28;20049;-59
2021/10/02 13:31:15;;;;;;;5.25;3.30;;;22.40;67.00;;;;;;5013904;28;20042;-58
2021/10/02 13:33:44;;;;;;;3.58;2.70;;;22.50;67.70;;;;;;5013188;28;20037;-61
2021/10/02 13:36:24;;;;;;;3.70;2.70;;;22.60;68.30;;;;;;5014685;28;20029;-62
2021/10/02 13:38:50;;;;;;;4.47;3.28;;;22.70;68.60;;;;;;5014679;28;20037;-62
2021/10/02 13:41:19;;;;;;;6.80;3.40;;;22.70;69.40;;;;;;5014452;28;20030;-62
2021/10/02 13:43:52;;;;;;;4.13;3.25;;;22.80;69.50;;;;;;5015013;28;20044;-61
2021/10/02 13:46:31;;;;;;;5.65;3.60;;;22.90;69.00;;;;;;5014643;28;20037;-62
2021/10/02 13:49:03;;;;;;;5.07;2.90;;;23.00;67.50;;;;;;5014883;28;20107;-62
2021/10/02 13:51:29;;;;;;;5.75;3.00;;;23.20;68.00;;;;;;4996626;28;20034;-63
2021/10/02 13:53:56;;;;;;;5.22;3.17;;;23.50;67.90;;;;;;5014007;28;20054;-63